sensor_id;sensor_type;location;lat;lon;timestamp;temperature;humidity
15355;DHT22;7777;52.254;9.618;2023-04-25T00:02:22;8.30;99.90
15355;DHT22;7777;52.254;9.618;2023-04-25T00:04:47;8.30;99.90
15355;DHT22;7777;52.254;9.618;2023-04-25T00:07:14;8.30;99.90
15355;DHT22;7777;52.254;9.618;2023-04-25T00:09:40;8.30;99.90
15355;DHT22;7777;52.254;9.618;2023-04-25T00:12:06;8.30;99.90
15355;DHT22;7777;52.254;9.618;2023-04-25T00:14:31;8.30;99.90
15355;DHT22;7777;52.254;9.618;2023-04-25T00:16:59;8.30;99.90
15355;DHT22;7777;52.254;9.618;2023-04-25T00:19:26;8.30;99.90
15355;DHT22;7777;52.254;9.618;2023-04-25T00:21:54;8.30;99.90
15355;DHT22;7777;52.254;9.618;2023-04-25T00:24:20;8.30;99.90
15355;DHT22;7777;52.254;9.618;2023-04-25T00:26:46;8.30;99.90
15355;DHT22;7777;52.254;9.618;2023-04-25T00:29:12;8.20;99.90
15355;DHT22;7777;52.254;9.618;2023-04-25T00:31:38;8.20;99.90
15355;DHT22;7777;52.254;9.618;2023-04-25T00:34:04;8.20;99.90
15355;DHT22;7777;52.254;9.618;2023-04-25T00:36:31;8.10;99.90
15355;DHT22;7777;52.254;9.618;2023-04-25T00:38:57;8.10;99.90
15355;DHT22;7777;52.254;9.618;2023-04-25T00:41:25;8.10;99.90
15355;DHT22;7777;52.254;9.618;2023-04-25T00:43:52;8.20;99.90
15355;DHT22;7777;52.254;9.618;2023-04-25T00:46:19;8.20;99.90
15355;DHT22;7777;52.254;9.618;2023-04-25T00:48:45;8.10;99.90
15355;DHT22;7777;52.254;9.618;2023-04-25T00:51:15;8.20;99.90
15355;DHT22;7777;52.254;9.618;2023-04-25T00:53:47;8.10;99.90
15355;DHT22;7777;52.254;9.618;2023-04-25T00:56:15;8.10;99.90
15355;DHT22;7777;52.254;9.618;2023-04-25T00:58:41;8.10;99.90
15355;DHT22;7777;52.254;9.618;2023-04-25T01:01:08;8.10;99.90
15355;DHT22;7777;52.254;9.618;2023-04-25T01:03:38;8.10;99.90
15355;DHT22;7777;52.254;9.618;2023-04-25T01:06:08;8.10;99.90
15355;DHT22;7777;52.254;9.618;2023-04-25T01:08:35;8.10;99.90
15355;DHT22;7777;52.254;9.618;2023-04-25T01:11:02;8.10;99.90
15355;DHT22;7777;52.254;9.618;2023-04-25T01:13:28;8.00;99.90
15355;DHT22;7777;52.254;9.618;2023-04-25T01:15:55;8.00;99.90
15355;DHT22;7777;52.254;9.618;2023-04-25T01:18:20;8.10;99.90
15355;DHT22;7777;52.254;9.618;2023-04-25T01:20:50;8.10;99.90
15355;DHT22;7777;52.254;9.618;2023-04-25T01:23:16;8.10;99.90
15355;DHT22;7777;52.254;9.618;2023-04-25T01:25:42;8.10;99.90
15355;DHT22;7777;52.254;9.618;2023-04-25T01:28:08;8.10;99.90
15355;DHT22;7777;52.254;9.618;2023-04-25T01:30:34;8.10;99.90
15355;DHT22;7777;52.254;9.618;2023-04-25T01:33:01;8.10;99.90
15355;DHT22;7777;52.254;9.618;2023-04-25T01:35:31;8.20;99.90
15355;DHT22;7777;52.254;9.618;2023-04-25T01:37:57;8.10;99.90
15355;DHT22;7777;52.254;9.618;2023-04-25T01:40:25;8.10;99.90
15355;DHT22;7777;52.254;9.618;2023-04-25T01:42:51;8.20;99.90
15355;DHT22;7777;52.254;9.618;2023-04-25T01:45:17;8.10;99.90
15355;DHT22;7777;52.254;9.618;2023-04-25T01:47:44;8.20;99.90
15355;DHT22;7777;52.254;9.618;2023-04-25T01:50:15;8.10;99.90
15355;DHT22;7777;52.254;9.618;2023-04-25T01:52:47;8.10;99.90
15355;DHT22;7777;52.254;9.618;2023-04-25T01:55:13;8.10;99.90
15355;DHT22;7777;52.254;9.618;2023-04-25T01:57:39;8.10;99.90
15355;DHT22;7777;52.254;9.618;2023-04-25T02:00:06;8.10;99.90
15355;DHT22;7777;52.254;9.618;2023-04-25T02:02:32;8.10;99.90
15355;DHT22;7777;52.254;9.618;2023-04-25T02:04:58;8.10;99.90
15355;DHT22;7777;52.254;9.618;2023-04-25T02:07:23;8.10;99.90
15355;DHT22;7777;52.254;9.618;2023-04-25T02:09:49;8.10;99.90
15355;DHT22;7777;52.254;9.618;2023-04-25T02:12:15;8.10;99.90
15355;DHT22;7777;52.254;9.618;2023-04-25T02:14:41;8.10;99.90
15355;DHT22;7777;52.254;9.618;2023-04-25T02:17:07;8.10;99.90
15355;DHT22;7777;52.254;9.618;2023-04-25T02:19:32;8.10;99.90
15355;DHT22;7777;52.254;9.618;2023-04-25T02:22:00;8.10;99.90
15355;DHT22;7777;52.254;9.618;2023-04-25T02:24:26;8.10;99.90
15355;DHT22;7777;52.254;9.618;2023-04-25T02:26:53;8.10;99.90
15355;DHT22;7777;52.254;9.618;2023-04-25T02:29:20;8.10;99.90
15355;DHT22;7777;52.254;9.618;2023-04-25T02:31:46;8.10;99.90
15355;DHT22;7777;52.254;9.618;2023-04-25T02:34:12;8.20;99.90
15355;DHT22;7777;52.254;9.618;2023-04-25T02:36:38;8.20;99.90
15355;DHT22;7777;52.254;9.618;2023-04-25T02:39:03;8.20;99.90
15355;DHT22;7777;52.254;9.618;2023-04-25T02:41:29;8.10;99.90
15355;DHT22;7777;52.254;9.618;2023-04-25T02:43:55;8.10;99.90
15355;DHT22;7777;52.254;9.618;2023-04-25T02:46:21;8.20;99.90
15355;DHT22;7777;52.254;9.618;2023-04-25T02:48:46;8.20;99.90
15355;DHT22;7777;52.254;9.618;2023-04-25T02:51:12;8.10;99.90
15355;DHT22;7777;52.254;9.618;2023-04-25T02:53:38;8.10;99.90
15355;DHT22;7777;52.254;9.618;2023-04-25T02:56:04;8.10;99.90
15355;DHT22;7777;52.254;9.618;2023-04-25T02:58:33;8.10;99.90
15355;DHT22;7777;52.254;9.618;2023-04-25T03:00:58;8.10;99.90
15355;DHT22;7777;52.254;9.618;2023-04-25T03:03:24;8.00;99.90
15355;DHT22;7777;52.254;9.618;2023-04-25T03:05:50;8.00;99.90
15355;DHT22;7777;52.254;9.618;2023-04-25T03:08:19;8.00;99.90
15355;DHT22;7777;52.254;9.618;2023-04-25T03:10:45;8.00;99.90
15355;DHT22;7777;52.254;9.618;2023-04-25T03:13:11;8.00;99.90
15355;DHT22;7777;52.254;9.618;2023-04-25T03:15:39;7.90;99.90
15355;DHT22;7777;52.254;9.618;2023-04-25T03:18:05;7.90;99.90
15355;DHT22;7777;52.254;9.618;2023-04-25T03:20:31;7.90;99.90
15355;DHT22;7777;52.254;9.618;2023-04-25T03:22:57;7.90;99.90
15355;DHT22;7777;52.254;9.618;2023-04-25T03:25:26;7.90;99.90
15355;DHT22;7777;52.254;9.618;2023-04-25T03:27:54;7.90;99.90
15355;DHT22;7777;52.254;9.618;2023-04-25T03:30:20;7.90;99.90
15355;DHT22;7777;52.254;9.618;2023-04-25T03:32:46;7.90;99.90
15355;DHT22;7777;52.254;9.618;2023-04-25T03:35:12;7.80;99.90
15355;DHT22;7777;52.254;9.618;2023-04-25T03:37:37;7.80;99.90
15355;DHT22;7777;52.254;9.618;2023-04-25T03:40:03;7.80;99.90
15355;DHT22;7777;52.254;9.618;2023-04-25T03:42:30;7.80;99.90
15355;DHT22;7777;52.254;9.618;2023-04-25T03:44:56;7.70;99.90
15355;DHT22;7777;52.254;9.618;2023-04-25T03:47:21;7.80;99.90
15355;DHT22;7777;52.254;9.618;2023-04-25T03:49:47;7.80;99.90
15355;DHT22;7777;52.254;9.618;2023-04-25T03:52:14;7.70;99.90
15355;DHT22;7777;52.254;9.618;2023-04-25T03:54:40;7.70;99.90
15355;DHT22;7777;52.254;9.618;2023-04-25T03:57:06;7.70;99.90
15355;DHT22;7777;52.254;9.618;2023-04-25T03:59:32;7.70;99.90
15355;DHT22;7777;52.254;9.618;2023-04-25T04:01:58;7.70;99.90
15355;DHT22;7777;52.254;9.618;2023-04-25T04:04:24;7.70;99.90
15355;DHT22;7777;52.254;9.618;2023-04-25T04:06:50;7.60;99.90
15355;DHT22;7777;52.254;9.618;2023-04-25T04:09:18;7.60;99.90
15355;DHT22;7777;52.254;9.618;2023-04-25T04:11:45;7.60;99.90
15355;DHT22;7777;52.254;9.618;2023-04-25T04:14:12;7.50;99.90
15355;DHT22;7777;52.254;9.618;2023-04-25T04:16:38;7.50;99.90
15355;DHT22;7777;52.254;9.618;2023-04-25T04:19:03;7.50;99.90
15355;DHT22;7777;52.254;9.618;2023-04-25T04:21:29;7.50;99.90
15355;DHT22;7777;52.254;9.618;2023-04-25T04:23:55;7.50;99.90
15355;DHT22;7777;52.254;9.618;2023-04-25T04:26:23;7.50;99.90
15355;DHT22;7777;52.254;9.618;2023-04-25T04:28:49;7.50;99.90
15355;DHT22;7777;52.254;9.618;2023-04-25T04:31:16;7.50;99.90
15355;DHT22;7777;52.254;9.618;2023-04-25T04:33:45;7.50;99.90
15355;DHT22;7777;52.254;9.618;2023-04-25T04:36:11;7.50;99.90
15355;DHT22;7777;52.254;9.618;2023-04-25T04:38:37;7.50;99.90
15355;DHT22;7777;52.254;9.618;2023-04-25T04:41:02;7.50;99.90
15355;DHT22;7777;52.254;9.618;2023-04-25T04:43:28;7.50;99.90
15355;DHT22;7777;52.254;9.618;2023-04-25T04:45:55;7.50;99.90
15355;DHT22;7777;52.254;9.618;2023-04-25T04:48:24;7.50;99.90
15355;DHT22;7777;52.254;9.618;2023-04-25T04:50:49;7.50;99.90
15355;DHT22;7777;52.254;9.618;2023-04-25T04:53:15;7.50;99.90
15355;DHT22;7777;52.254;9.618;2023-04-25T04:55:41;7.60;99.90
15355;DHT22;7777;52.254;9.618;2023-04-25T04:58:07;7.50;99.90
15355;DHT22;7777;52.254;9.618;2023-04-25T05:00:33;7.50;99.90
15355;DHT22;7777;52.254;9.618;2023-04-25T05:02:59;7.60;99.90
15355;DHT22;7777;52.254;9.618;2023-04-25T05:05:24;7.60;99.90
15355;DHT22;7777;52.254;9.618;2023-04-25T05:07:50;7.60;99.90
15355;DHT22;7777;52.254;9.618;2023-04-25T05:10:18;7.60;99.90
15355;DHT22;7777;52.254;9.618;2023-04-25T05:12:44;7.60;99.90
15355;DHT22;7777;52.254;9.618;2023-04-25T05:15:10;7.60;99.90
15355;DHT22;7777;52.254;9.618;2023-04-25T05:17:36;7.60;99.90
15355;DHT22;7777;52.254;9.618;2023-04-25T05:20:02;7.60;99.90
15355;DHT22;7777;52.254;9.618;2023-04-25T05:22:31;7.60;99.90
15355;DHT22;7777;52.254;9.618;2023-04-25T05:24:56;7.60;99.90
15355;DHT22;7777;52.254;9.618;2023-04-25T05:27:22;7.60;99.90
15355;DHT22;7777;52.254;9.618;2023-04-25T05:29:48;7.60;99.90
15355;DHT22;7777;52.254;9.618;2023-04-25T05:32:13;7.60;99.90
15355;DHT22;7777;52.254;9.618;2023-04-25T05:34:39;7.60;99.90
15355;DHT22;7777;52.254;9.618;2023-04-25T05:37:05;7.60;99.90
15355;DHT22;7777;52.254;9.618;2023-04-25T05:39:31;7.60;99.90
15355;DHT22;7777;52.254;9.618;2023-04-25T05:41:57;7.60;99.90
15355;DHT22;7777;52.254;9.618;2023-04-25T05:44:23;7.60;99.90
15355;DHT22;7777;52.254;9.618;2023-04-25T05:46:49;7.60;99.90
15355;DHT22;7777;52.254;9.618;2023-04-25T05:49:15;7.70;99.90
15355;DHT22;7777;52.254;9.618;2023-04-25T05:51:40;7.80;99.90
15355;DHT22;7777;52.254;9.618;2023-04-25T05:54:06;7.70;99.90
15355;DHT22;7777;52.254;9.618;2023-04-25T05:56:32;7.80;99.90
15355;DHT22;7777;52.254;9.618;2023-04-25T05:58:57;7.70;99.90
15355;DHT22;7777;52.254;9.618;2023-04-25T06:01:23;7.70;99.90
15355;DHT22;7777;52.254;9.618;2023-04-25T06:03:49;7.80;99.90
15355;DHT22;7777;52.254;9.618;2023-04-25T06:06:16;7.80;99.90
15355;DHT22;7777;52.254;9.618;2023-04-25T06:08:42;7.80;99.90
15355;DHT22;7777;52.254;9.618;2023-04-25T06:11:08;7.80;99.90
15355;DHT22;7777;52.254;9.618;2023-04-25T06:13:34;7.80;99.90
15355;DHT22;7777;52.254;9.618;2023-04-25T06:15:59;7.90;99.90
15355;DHT22;7777;52.254;9.618;2023-04-25T06:18:25;7.90;99.90
15355;DHT22;7777;52.254;9.618;2023-04-25T06:20:51;7.90;99.90
15355;DHT22;7777;52.254;9.618;2023-04-25T06:23:17;7.90;99.90
15355;DHT22;7777;52.254;9.618;2023-04-25T06:25:42;7.90;99.90
15355;DHT22;7777;52.254;9.618;2023-04-25T06:28:08;7.90;99.90
15355;DHT22;7777;52.254;9.618;2023-04-25T06:30:34;7.90;99.90
15355;DHT22;7777;52.254;9.618;2023-04-25T06:33:00;7.90;99.90
15355;DHT22;7777;52.254;9.618;2023-04-25T06:35:26;8.00;99.90
15355;DHT22;7777;52.254;9.618;2023-04-25T06:37:52;8.00;99.90
15355;DHT22;7777;52.254;9.618;2023-04-25T06:40:17;8.00;99.90
15355;DHT22;7777;52.254;9.618;2023-04-25T06:42:43;8.10;99.90
15355;DHT22;7777;52.254;9.618;2023-04-25T06:45:09;8.10;99.90
15355;DHT22;7777;52.254;9.618;2023-04-25T06:47:35;8.10;99.90
15355;DHT22;7777;52.254;9.618;2023-04-25T06:50:01;8.10;99.90
15355;DHT22;7777;52.254;9.618;2023-04-25T06:52:27;8.20;99.90
15355;DHT22;7777;52.254;9.618;2023-04-25T06:54:53;8.20;99.90
15355;DHT22;7777;52.254;9.618;2023-04-25T06:57:18;8.30;99.90
15355;DHT22;7777;52.254;9.618;2023-04-25T06:59:44;8.30;99.90
15355;DHT22;7777;52.254;9.618;2023-04-25T07:02:10;8.30;99.90
15355;DHT22;7777;52.254;9.618;2023-04-25T07:04:36;8.30;99.90
15355;DHT22;7777;52.254;9.618;2023-04-25T07:07:02;8.30;99.90
15355;DHT22;7777;52.254;9.618;2023-04-25T07:09:29;8.40;99.90
15355;DHT22;7777;52.254;9.618;2023-04-25T07:11:55;8.50;99.90
15355;DHT22;7777;52.254;9.618;2023-04-25T07:14:21;8.50;99.90
15355;DHT22;7777;52.254;9.618;2023-04-25T07:16:47;8.60;99.90
15355;DHT22;7777;52.254;9.618;2023-04-25T07:19:13;8.60;99.90
15355;DHT22;7777;52.254;9.618;2023-04-25T07:21:39;8.70;99.90
15355;DHT22;7777;52.254;9.618;2023-04-25T07:24:05;8.70;99.90
15355;DHT22;7777;52.254;9.618;2023-04-25T07:26:31;8.80;99.90
15355;DHT22;7777;52.254;9.618;2023-04-25T07:28:57;8.90;99.90
15355;DHT22;7777;52.254;9.618;2023-04-25T07:31:23;8.90;99.90
15355;DHT22;7777;52.254;9.618;2023-04-25T07:33:49;8.90;99.90
15355;DHT22;7777;52.254;9.618;2023-04-25T07:36:14;8.90;99.90
15355;DHT22;7777;52.254;9.618;2023-04-25T07:38:40;8.90;99.90
15355;DHT22;7777;52.254;9.618;2023-04-25T07:41:07;8.90;99.90
15355;DHT22;7777;52.254;9.618;2023-04-25T07:43:33;8.90;99.90
15355;DHT22;7777;52.254;9.618;2023-04-25T07:45:58;8.90;99.90
15355;DHT22;7777;52.254;9.618;2023-04-25T07:48:24;8.80;99.90
15355;DHT22;7777;52.254;9.618;2023-04-25T07:50:50;8.80;99.90
15355;DHT22;7777;52.254;9.618;2023-04-25T07:53:16;8.80;99.90
15355;DHT22;7777;52.254;9.618;2023-04-25T07:55:43;8.80;99.90
15355;DHT22;7777;52.254;9.618;2023-04-25T07:58:09;8.80;99.90
15355;DHT22;7777;52.254;9.618;2023-04-25T08:00:36;8.70;99.90
15355;DHT22;7777;52.254;9.618;2023-04-25T08:03:03;8.80;99.90
15355;DHT22;7777;52.254;9.618;2023-04-25T08:05:29;8.80;99.90
15355;DHT22;7777;52.254;9.618;2023-04-25T08:07:55;8.80;99.90
15355;DHT22;7777;52.254;9.618;2023-04-25T08:10:22;8.90;99.90
15355;DHT22;7777;52.254;9.618;2023-04-25T08:12:48;8.90;99.90
15355;DHT22;7777;52.254;9.618;2023-04-25T08:15:14;8.90;99.90
15355;DHT22;7777;52.254;9.618;2023-04-25T08:17:40;8.90;99.90
15355;DHT22;7777;52.254;9.618;2023-04-25T08:20:07;9.00;99.90
15355;DHT22;7777;52.254;9.618;2023-04-25T08:22:32;9.10;99.90
15355;DHT22;7777;52.254;9.618;2023-04-25T08:24:59;9.10;99.90
15355;DHT22;7777;52.254;9.618;2023-04-25T08:27:25;9.20;99.90
15355;DHT22;7777;52.254;9.618;2023-04-25T08:29:51;9.20;99.90
15355;DHT22;7777;52.254;9.618;2023-04-25T08:32:18;9.20;99.90
15355;DHT22;7777;52.254;9.618;2023-04-25T08:34:47;9.30;99.90
15355;DHT22;7777;52.254;9.618;2023-04-25T08:37:12;9.40;99.90
15355;DHT22;7777;52.254;9.618;2023-04-25T08:39:38;9.40;99.90
15355;DHT22;7777;52.254;9.618;2023-04-25T08:42:06;9.50;99.90
15355;DHT22;7777;52.254;9.618;2023-04-25T08:44:35;9.60;99.90
15355;DHT22;7777;52.254;9.618;2023-04-25T08:47:03;9.70;99.90
15355;DHT22;7777;52.254;9.618;2023-04-25T08:49:33;9.70;99.90
15355;DHT22;7777;52.254;9.618;2023-04-25T08:52:02;9.80;99.90
15355;DHT22;7777;52.254;9.618;2023-04-25T08:54:32;9.80;99.90
15355;DHT22;7777;52.254;9.618;2023-04-25T08:57:02;9.80;99.90
15355;DHT22;7777;52.254;9.618;2023-04-25T08:59:30;9.80;99.90
15355;DHT22;7777;52.254;9.618;2023-04-25T09:01:57;9.80;99.90
15355;DHT22;7777;52.254;9.618;2023-04-25T09:04:23;9.80;99.90
15355;DHT22;7777;52.254;9.618;2023-04-25T09:06:48;9.70;99.90
15355;DHT22;7777;52.254;9.618;2023-04-25T09:09:14;9.70;99.90
15355;DHT22;7777;52.254;9.618;2023-04-25T09:11:41;9.70;99.90
15355;DHT22;7777;52.254;9.618;2023-04-25T09:14:18;9.70;99.90
15355;DHT22;7777;52.254;9.618;2023-04-25T09:19:32;9.90;99.90
15355;DHT22;7777;52.254;9.618;2023-04-25T09:22:03;9.90;99.90
15355;DHT22;7777;52.254;9.618;2023-04-25T09:24:46;10.00;99.90
15355;DHT22;7777;52.254;9.618;2023-04-25T09:27:19;10.00;99.90
15355;DHT22;7777;52.254;9.618;2023-04-25T09:29:48;10.00;99.90
15355;DHT22;7777;52.254;9.618;2023-04-25T09:32:23;10.00;99.90
15355;DHT22;7777;52.254;9.618;2023-04-25T09:37:18;10.10;99.90
15355;DHT22;7777;52.254;9.618;2023-04-25T09:39:56;10.10;99.90
15355;DHT22;7777;52.254;9.618;2023-04-25T09:42:25;10.20;99.70
15355;DHT22;7777;52.254;9.618;2023-04-25T09:44:53;10.20;99.30
15355;DHT22;7777;52.254;9.618;2023-04-25T09:47:22;10.20;99.10
15355;DHT22;7777;52.254;9.618;2023-04-25T09:49:49;10.20;99.30
15355;DHT22;7777;52.254;9.618;2023-04-25T09:52:17;10.20;99.80
15355;DHT22;7777;52.254;9.618;2023-04-25T09:54:45;10.10;99.40
15355;DHT22;7777;52.254;9.618;2023-04-25T09:59:49;10.20;99.80
15355;DHT22;7777;52.254;9.618;2023-04-25T10:02:19;10.20;99.20
15355;DHT22;7777;52.254;9.618;2023-04-25T10:04:50;10.30;98.90
15355;DHT22;7777;52.254;9.618;2023-04-25T10:07:19;10.30;99.30
15355;DHT22;7777;52.254;9.618;2023-04-25T10:09:48;10.40;98.70
15355;DHT22;7777;52.254;9.618;2023-04-25T10:12:17;10.50;99.40
15355;DHT22;7777;52.254;9.618;2023-04-25T10:14:43;10.70;99.50
15355;DHT22;7777;52.254;9.618;2023-04-25T10:17:10;10.90;99.90
15355;DHT22;7777;52.254;9.618;2023-04-25T10:19:39;10.90;99.60
15355;DHT22;7777;52.254;9.618;2023-04-25T10:22:35;11.10;99.60
15355;DHT22;7777;52.254;9.618;2023-04-25T10:25:03;11.10;98.60
15355;DHT22;7777;52.254;9.618;2023-04-25T10:27:31;11.00;98.30
15355;DHT22;7777;52.254;9.618;2023-04-25T10:30:23;11.00;98.00
15355;DHT22;7777;52.254;9.618;2023-04-25T10:32:50;10.90;97.90
15355;DHT22;7777;52.254;9.618;2023-04-25T10:35:19;10.90;98.40
15355;DHT22;7777;52.254;9.618;2023-04-25T10:38:08;10.80;98.30
15355;DHT22;7777;52.254;9.618;2023-04-25T10:40:35;10.80;98.40
15355;DHT22;7777;52.254;9.618;2023-04-25T10:46:03;10.80;97.90
15355;DHT22;7777;52.254;9.618;2023-04-25T10:49:02;10.80;97.80
15355;DHT22;7777;52.254;9.618;2023-04-25T10:51:32;10.80;97.80
15355;DHT22;7777;52.254;9.618;2023-04-25T10:54:07;10.80;98.40
15355;DHT22;7777;52.254;9.618;2023-04-25T10:56:37;10.80;98.80
15355;DHT22;7777;52.254;9.618;2023-04-25T10:59:14;10.90;98.70
15355;DHT22;7777;52.254;9.618;2023-04-25T11:01:43;10.90;98.70
15355;DHT22;7777;52.254;9.618;2023-04-25T11:04:25;10.90;98.20
15355;DHT22;7777;52.254;9.618;2023-04-25T11:07:22;10.90;97.80
15355;DHT22;7777;52.254;9.618;2023-04-25T11:09:51;10.80;96.70
15355;DHT22;7777;52.254;9.618;2023-04-25T11:12:17;10.80;96.90
15355;DHT22;7777;52.254;9.618;2023-04-25T11:14:43;10.70;96.40
15355;DHT22;7777;52.254;9.618;2023-04-25T11:17:09;10.70;97.10
15355;DHT22;7777;52.254;9.618;2023-04-25T11:19:36;10.80;97.30
15355;DHT22;7777;52.254;9.618;2023-04-25T11:22:02;10.70;97.00
15355;DHT22;7777;52.254;9.618;2023-04-25T11:24:30;10.70;97.50
15355;DHT22;7777;52.254;9.618;2023-04-25T11:26:58;10.60;96.70
15355;DHT22;7777;52.254;9.618;2023-04-25T11:29:31;10.60;97.40
15355;DHT22;7777;52.254;9.618;2023-04-25T11:31:57;10.60;97.60
15355;DHT22;7777;52.254;9.618;2023-04-25T11:34:27;10.50;97.70
15355;DHT22;7777;52.254;9.618;2023-04-25T11:36:56;10.50;97.10
15355;DHT22;7777;52.254;9.618;2023-04-25T11:39:23;10.40;96.70
15355;DHT22;7777;52.254;9.618;2023-04-25T11:41:50;10.40;96.80
15355;DHT22;7777;52.254;9.618;2023-04-25T11:44:16;10.30;97.80
15355;DHT22;7777;52.254;9.618;2023-04-25T11:46:43;10.30;98.00
15355;DHT22;7777;52.254;9.618;2023-04-25T11:49:09;10.20;98.10
15355;DHT22;7777;52.254;9.618;2023-04-25T11:51:42;10.10;98.10
15355;DHT22;7777;52.254;9.618;2023-04-25T11:54:12;10.00;98.20
15355;DHT22;7777;52.254;9.618;2023-04-25T11:56:45;9.90;99.00
15355;DHT22;7777;52.254;9.618;2023-04-25T11:59:11;9.90;99.40
15355;DHT22;7777;52.254;9.618;2023-04-25T12:01:39;9.90;99.50
15355;DHT22;7777;52.254;9.618;2023-04-25T12:04:17;9.90;99.40
15355;DHT22;7777;52.254;9.618;2023-04-25T12:06:49;9.90;99.70
15355;DHT22;7777;52.254;9.618;2023-04-25T12:09:29;10.00;99.50
15355;DHT22;7777;52.254;9.618;2023-04-25T12:11:58;10.00;99.40
15355;DHT22;7777;52.254;9.618;2023-04-25T12:14:28;10.00;99.30
15355;DHT22;7777;52.254;9.618;2023-04-25T12:16:57;10.10;99.50
15355;DHT22;7777;52.254;9.618;2023-04-25T12:19:24;10.20;99.10
15355;DHT22;7777;52.254;9.618;2023-04-25T12:21:51;10.30;99.60
15355;DHT22;7777;52.254;9.618;2023-04-25T12:24:24;10.50;99.70
15355;DHT22;7777;52.254;9.618;2023-04-25T12:27:02;10.70;99.80
15355;DHT22;7777;52.254;9.618;2023-04-25T12:29:31;10.90;99.60
15355;DHT22;7777;52.254;9.618;2023-04-25T12:31:57;11.10;99.30
15355;DHT22;7777;52.254;9.618;2023-04-25T12:34:23;11.30;99.50
15355;DHT22;7777;52.254;9.618;2023-04-25T12:36:51;11.50;99.00
15355;DHT22;7777;52.254;9.618;2023-04-25T12:39:24;11.70;98.50
15355;DHT22;7777;52.254;9.618;2023-04-25T12:41:53;11.90;98.40
15355;DHT22;7777;52.254;9.618;2023-04-25T12:44:19;12.00;98.00
15355;DHT22;7777;52.254;9.618;2023-04-25T12:46:45;12.00;97.50
15355;DHT22;7777;52.254;9.618;2023-04-25T12:49:12;12.10;97.10
15355;DHT22;7777;52.254;9.618;2023-04-25T12:51:38;12.10;96.80
15355;DHT22;7777;52.254;9.618;2023-04-25T12:54:05;12.10;96.60
15355;DHT22;7777;52.254;9.618;2023-04-25T12:56:32;12.00;96.30
15355;DHT22;7777;52.254;9.618;2023-04-25T12:58:58;11.90;96.00
15355;DHT22;7777;52.254;9.618;2023-04-25T13:01:24;11.90;96.80
15355;DHT22;7777;52.254;9.618;2023-04-25T13:03:54;11.80;96.70
15355;DHT22;7777;52.254;9.618;2023-04-25T13:06:21;11.60;96.90
15355;DHT22;7777;52.254;9.618;2023-04-25T13:08:47;11.50;96.90
15355;DHT22;7777;52.254;9.618;2023-04-25T13:11:13;11.40;97.00
15355;DHT22;7777;52.254;9.618;2023-04-25T13:13:43;11.20;96.90
15355;DHT22;7777;52.254;9.618;2023-04-25T13:16:09;11.10;97.40
15355;DHT22;7777;52.254;9.618;2023-04-25T13:18:35;10.90;98.10
15355;DHT22;7777;52.254;9.618;2023-04-25T13:21:01;10.80;98.80
15355;DHT22;7777;52.254;9.618;2023-04-25T13:23:28;10.60;98.90
15355;DHT22;7777;52.254;9.618;2023-04-25T13:25:55;10.60;99.00
15355;DHT22;7777;52.254;9.618;2023-04-25T13:28:24;10.50;99.20
15355;DHT22;7777;52.254;9.618;2023-04-25T13:30:50;10.40;99.30
15355;DHT22;7777;52.254;9.618;2023-04-25T13:33:17;10.30;99.80
15355;DHT22;7777;52.254;9.618;2023-04-25T13:35:43;10.20;99.90
15355;DHT22;7777;52.254;9.618;2023-04-25T13:38:12;10.20;99.70
15355;DHT22;7777;52.254;9.618;2023-04-25T13:40:38;10.30;99.90
15355;DHT22;7777;52.254;9.618;2023-04-25T13:43:04;10.50;99.90
15355;DHT22;7777;52.254;9.618;2023-04-25T13:45:31;10.60;99.90
15355;DHT22;7777;52.254;9.618;2023-04-25T13:47:57;10.80;99.90
15355;DHT22;7777;52.254;9.618;2023-04-25T13:50:23;11.00;99.90
15355;DHT22;7777;52.254;9.618;2023-04-25T13:52:49;11.20;99.90
15355;DHT22;7777;52.254;9.618;2023-04-25T13:55:15;11.30;99.90
15355;DHT22;7777;52.254;9.618;2023-04-25T13:57:41;11.50;99.90
15355;DHT22;7777;52.254;9.618;2023-04-25T14:00:07;11.60;99.90
15355;DHT22;7777;52.254;9.618;2023-04-25T14:02:37;11.70;99.90
15355;DHT22;7777;52.254;9.618;2023-04-25T14:05:04;11.80;99.80
15355;DHT22;7777;52.254;9.618;2023-04-25T14:07:31;11.80;99.10
15355;DHT22;7777;52.254;9.618;2023-04-25T14:09:57;11.80;99.00
15355;DHT22;7777;52.254;9.618;2023-04-25T14:12:23;11.70;99.40
15355;DHT22;7777;52.254;9.618;2023-04-25T14:14:49;11.60;99.40
15355;DHT22;7777;52.254;9.618;2023-04-25T14:17:14;11.60;99.90
15355;DHT22;7777;52.254;9.618;2023-04-25T14:19:40;11.50;99.90
15355;DHT22;7777;52.254;9.618;2023-04-25T14:22:10;11.40;99.90
15355;DHT22;7777;52.254;9.618;2023-04-25T14:24:36;11.30;99.90
15355;DHT22;7777;52.254;9.618;2023-04-25T14:27:02;11.30;99.90
15355;DHT22;7777;52.254;9.618;2023-04-25T14:29:29;11.20;99.90
15355;DHT22;7777;52.254;9.618;2023-04-25T14:31:55;11.20;99.90
15355;DHT22;7777;52.254;9.618;2023-04-25T14:34:23;11.10;99.90
15355;DHT22;7777;52.254;9.618;2023-04-25T14:36:49;11.10;99.60
15355;DHT22;7777;52.254;9.618;2023-04-25T14:39:15;11.10;99.90
15355;DHT22;7777;52.254;9.618;2023-04-25T14:41:40;11.20;99.90
15355;DHT22;7777;52.254;9.618;2023-04-25T14:44:06;11.20;99.90
15355;DHT22;7777;52.254;9.618;2023-04-25T14:46:32;11.30;99.90
15355;DHT22;7777;52.254;9.618;2023-04-25T14:48:58;11.30;99.90
15355;DHT22;7777;52.254;9.618;2023-04-25T14:51:24;11.40;99.90
15355;DHT22;7777;52.254;9.618;2023-04-25T14:53:49;11.40;99.70
15355;DHT22;7777;52.254;9.618;2023-04-25T14:56:16;11.40;99.60
15355;DHT22;7777;52.254;9.618;2023-04-25T14:58:41;11.40;99.10
15355;DHT22;7777;52.254;9.618;2023-04-25T15:01:07;11.40;99.00
15355;DHT22;7777;52.254;9.618;2023-04-25T15:03:33;11.40;99.40
15355;DHT22;7777;52.254;9.618;2023-04-25T15:05:59;11.40;98.20
15355;DHT22;7777;52.254;9.618;2023-04-25T15:08:25;11.40;98.10
15355;DHT22;7777;52.254;9.618;2023-04-25T15:10:51;11.40;98.50
15355;DHT22;7777;52.254;9.618;2023-04-25T15:13:18;11.30;98.40
15355;DHT22;7777;52.254;9.618;2023-04-25T15:15:44;11.40;98.50
15355;DHT22;7777;52.254;9.618;2023-04-25T15:18:20;11.30;97.80
15355;DHT22;7777;52.254;9.618;2023-04-25T15:20:52;11.30;96.70
15355;DHT22;7777;52.254;9.618;2023-04-25T15:23:19;11.30;96.40
15355;DHT22;7777;52.254;9.618;2023-04-25T15:25:46;11.20;96.90
15355;DHT22;7777;52.254;9.618;2023-04-25T15:28:12;11.30;96.90
15355;DHT22;7777;52.254;9.618;2023-04-25T15:30:43;11.30;97.20
15355;DHT22;7777;52.254;9.618;2023-04-25T15:33:09;11.30;97.50
15355;DHT22;7777;52.254;9.618;2023-04-25T15:35:35;11.30;97.20
15355;DHT22;7777;52.254;9.618;2023-04-25T15:38:02;11.30;96.80
15355;DHT22;7777;52.254;9.618;2023-04-25T15:40:29;11.30;96.90
15355;DHT22;7777;52.254;9.618;2023-04-25T15:43:03;11.20;96.90
15355;DHT22;7777;52.254;9.618;2023-04-25T15:45:29;11.20;97.30
15355;DHT22;7777;52.254;9.618;2023-04-25T15:47:56;11.20;97.10
15355;DHT22;7777;52.254;9.618;2023-04-25T15:50:23;11.20;97.00
15355;DHT22;7777;52.254;9.618;2023-04-25T15:52:50;11.10;97.10
15355;DHT22;7777;52.254;9.618;2023-04-25T15:55:18;11.10;96.70
15355;DHT22;7777;52.254;9.618;2023-04-25T15:57:45;11.10;96.60
15355;DHT22;7777;52.254;9.618;2023-04-25T16:00:13;11.00;95.60
15355;DHT22;7777;52.254;9.618;2023-04-25T16:02:41;11.00;96.00
15355;DHT22;7777;52.254;9.618;2023-04-25T16:05:07;11.00;96.20
15355;DHT22;7777;52.254;9.618;2023-04-25T16:07:33;10.90;95.20